Time;durP1;ratioP1;P1;durP2;ratioP2;P2;SDS_P1;SDS_P2;PMS_P1;PMS_P2;Temp;Humidity;BMP_temperature;BMP_pressure;BME280_temperature;BME280_humidity;BME280_pressure;Samples;Min_cycle;Max_cycle;Signal;HPM_P1;HPM_P2
2022/11/28 00:00:34;;;;;;;1.90;1.30;;;8.70;41.60;;;;;;4994150;28;20174;-73
2022/11/28 00:03:00;;;;;;;3.20;1.80;;;8.70;42.80;;;;;;4993135;28;20198;-73
2022/11/28 00:05:26;;;;;;;1.77;1.10;;;9.10;41.10;;;;;;4994290;28;20189;-74
2022/11/28 00:07:51;;;;;;;2.10;1.43;;;9.20;40.30;;;;;;4993431;28;20249;-74
2022/11/28 00:10:17;;;;;;;3.23;2.00;;;9.00;40.60;;;;;;4994425;28;20181;-73
2022/11/28 00:12:43;;;;;;;2.43;1.70;;;9.10;40.60;;;;;;4992632;28;21466;-75
2022/11/28 00:15:10;;;;;;;2.13;1.50;;;8.80;41.00;;;;;;4991716;28;20235;-74
2022/11/28 00:17:35;;;;;;;2.10;1.40;;;8.10;44.00;;;;;;5008526;28;20257;-73
2022/11/28 00:20:01;;;;;;;2.03;1.50;;;8.30;43.80;;;;;;4993304;28;20273;-75
2022/11/28 00:22:28;;;;;;;2.97;1.70;;;8.10;44.70;;;;;;5007155;28;20548;-73
2022/11/28 00:24:54;;;;;;;1.90;1.35;;;8.40;43.90;;;;;;4993651;28;20174;-72
2022/11/28 00:27:19;;;;;;;2.80;1.80;;;8.30;44.10;;;;;;4993790;28;20177;-74
2022/11/28 00:29:45;;;;;;;2.20;1.50;;;8.10;45.10;;;;;;4991096;28;20859;-74
2022/11/28 00:32:11;;;;;;;6.13;2.60;;;8.50;44.10;;;;;;4992660;28;20198;-74
2022/11/28 00:34:36;;;;;;;2.20;1.50;;;8.80;43.00;;;;;;4993811;28;20244;-74
2022/11/28 00:37:02;;;;;;;2.20;1.57;;;9.30;40.60;;;;;;4992263;28;20193;-74
2022/11/28 00:39:28;;;;;;;2.53;1.60;;;9.70;39.30;;;;;;4990903;28;20182;-74
2022/11/28 00:41:54;;;;;;;5.40;2.50;;;9.90;38.90;;;;;;4992014;28;20221;-73
2022/11/28 00:44:19;;;;;;;2.20;1.40;;;9.80;38.00;;;;;;4991634;28;20198;-73
2022/11/28 00:46:45;;;;;;;2.47;1.73;;;9.50;39.60;;;;;;4992804;28;20260;-74
2022/11/28 00:49:10;;;;;;;2.40;1.50;;;9.60;39.50;;;;;;4991446;28;20186;-74
2022/11/28 00:51:37;;;;;;;2.20;1.37;;;9.50;38.60;;;;;;4992578;28;20209;-74
2022/11/28 00:54:04;;;;;;;2.60;1.40;;;9.60;38.60;;;;;;4993153;28;20265;-74
2022/11/28 00:56:33;;;;;;;2.70;1.92;;;9.80;38.10;;;;;;4993183;28;20587;-73
2022/11/28 00:58:59;;;;;;;5.43;3.30;;;9.80;38.90;;;;;;4991522;28;20202;-74
2022/11/28 01:01:25;;;;;;;2.00;1.33;;;9.80;39.10;;;;;;4992474;28;20292;-71
2022/11/28 01:03:52;;;;;;;2.10;1.40;;;9.70;39.20;;;;;;4992852;28;20542;-73
2022/11/28 01:06:25;;;;;;;1.90;1.20;;;9.80;39.70;;;;;;4992340;28;20178;-74
2022/11/28 01:08:51;;;;;;;2.40;1.70;;;9.70;39.60;;;;;;4993179;28;20196;-73
2022/11/28 01:11:17;;;;;;;2.00;1.40;;;9.60;39.50;;;;;;4989996;28;20740;-74
2022/11/28 01:13:43;;;;;;;4.35;2.15;;;9.70;39.40;;;;;;4992484;28;20455;-74
2022/11/28 01:16:09;;;;;;;3.10;1.77;;;9.70;39.30;;;;;;4991963;28;20670;-74
2022/11/28 01:18:35;;;;;;;2.42;1.83;;;9.70;39.40;;;;;;4992746;28;20185;-74
2022/11/28 01:21:00;;;;;;;1.90;1.30;;;9.80;38.80;;;;;;4991729;28;20210;-74
2022/11/28 01:23:26;;;;;;;2.00;1.43;;;9.70;39.10;;;;;;4992599;28;20461;-74
2022/11/28 01:25:51;;;;;;;2.63;1.93;;;9.60;38.80;;;;;;4991486;28;20225;-74
2022/11/28 01:28:17;;;;;;;2.00;1.47;;;9.70;38.10;;;;;;4990800;28;20236;-74
2022/11/28 01:30:43;;;;;;;1.87;1.27;;;9.70;38.30;;;;;;4991554;28;20170;-74
2022/11/28 01:33:08;;;;;;;3.93;2.73;;;9.80;38.20;;;;;;4992290;28;20235;-74
2022/11/28 01:35:34;;;;;;;2.60;1.87;;;10.00;36.10;;;;;;4992322;28;20170;-74
2022/11/28 01:37:59;;;;;;;3.17;1.63;;;10.10;36.20;;;;;;4990758;28;20233;-73
2022/11/28 01:40:25;;;;;;;1.80;1.10;;;9.90;37.50;;;;;;4990588;28;20227;-74
2022/11/28 01:42:50;;;;;;;1.87;1.20;;;9.70;38.20;;;;;;4991272;28;20209;-74
2022/11/28 01:45:16;;;;;;;1.80;1.17;;;9.90;38.00;;;;;;4991560;28;20186;-74
2022/11/28 01:47:43;;;;;;;2.87;2.20;;;9.80;37.80;;;;;;4991636;28;20556;-73
2022/11/28 01:50:09;;;;;;;1.98;1.25;;;9.90;37.70;;;;;;4991769;28;20178;-74
2022/11/28 01:52:37;;;;;;;1.90;1.30;;;9.90;37.50;;;;;;4990942;28;20190;-74
2022/11/28 01:55:04;;;;;;;3.35;1.50;;;9.80;38.70;;;;;;4992019;28;20170;-74
2022/11/28 01:57:30;;;;;;;2.00;1.30;;;9.60;38.70;;;;;;4992220;28;20186;-74
2022/11/28 02:00:24;;;;;;;2.00;1.30;;;9.60;38.60;;;;;;4990747;28;20253;-74
2022/11/28 02:03:04;;;;;;;2.75;1.95;;;9.50;38.70;;;;;;4990681;28;20475;-74
2022/11/28 02:05:30;;;;;;;2.00;1.40;;;9.60;39.50;;;;;;4984168;28;20220;-74
2022/11/28 02:07:55;;;;;;;2.10;1.50;;;9.70;38.80;;;;;;4992142;28;20539;-74
2022/11/28 02:10:35;;;;;;;1.90;1.30;;;9.70;38.60;;;;;;4990246;28;20205;-74
2022/11/28 02:13:15;;;;;;;2.00;1.40;;;9.70;39.20;;;;;;4990521;28;20212;-74
2022/11/28 02:15:49;;;;;;;1.95;1.33;;;9.70;38.80;;;;;;4991190;28;20650;-74
2022/11/28 02:18:30;;;;;;;2.38;1.73;;;9.70;39.20;;;;;;4992156;28;20181;-74
2022/11/28 02:21:08;;;;;;;2.17;1.42;;;9.70;38.80;;;;;;4990806;28;20205;-74
2022/11/28 02:23:59;;;;;;;1.90;1.20;;;9.50;38.50;;;;;;4999187;28;20208;-73
2022/11/28 02:26:59;;;;;;;2.03;1.35;;;9.30;39.20;;;;;;4991697;28;20170;-74
2022/11/28 02:29:30;;;;;;;2.00;1.40;;;9.30;39.20;;;;;;4991744;28;20171;-74
2022/11/28 02:32:08;;;;;;;3.20;1.95;;;9.60;39.50;;;;;;4989847;28;20202;-74
2022/11/28 02:34:57;;;;;;;2.17;1.50;;;9.50;39.70;;;;;;4983489;28;20189;-74
2022/11/28 02:37:33;;;;;;;2.00;1.40;;;9.30;39.50;;;;;;4991719;28;20705;-73
2022/11/28 02:40:13;;;;;;;1.88;1.20;;;9.10;40.70;;;;;;4991072;28;20232;-74
2022/11/28 02:42:56;;;;;;;1.90;1.30;;;9.30;40.80;;;;;;4989833;28;20287;-74
2022/11/28 02:45:40;;;;;;;2.85;1.55;;;9.50;40.30;;;;;;4990930;28;20186;-73
2022/11/28 02:48:21;;;;;;;1.88;1.30;;;9.50;40.30;;;;;;4991877;28;20662;-74
2022/11/28 02:50:57;;;;;;;1.83;1.20;;;8.90;40.70;;;;;;4991635;28;20777;-74
2022/11/28 02:53:27;;;;;;;1.80;1.20;;;9.00;41.00;;;;;;4990728;28;20190;-74
2022/11/28 02:55:53;;;;;;;1.90;1.30;;;9.00;40.60;;;;;;4990774;28;20676;-75
2022/11/28 02:58:18;;;;;;;1.90;1.30;;;9.00;40.20;;;;;;4990418;28;20273;-74
2022/11/28 03:00:46;;;;;;;2.23;1.30;;;9.10;39.90;;;;;;4991140;28;20480;-74
2022/11/28 03:03:33;;;;;;;2.25;1.85;;;9.40;39.30;;;;;;4992954;28;20210;-74
2022/11/28 03:06:14;;;;;;;2.10;1.40;;;9.30;39.20;;;;;;4993738;28;20579;-75
2022/11/28 03:08:46;;;;;;;3.25;2.08;;;9.20;39.80;;;;;;4995336;28;20263;-73
2022/11/28 03:11:23;;;;;;;2.30;1.58;;;9.20;39.70;;;;;;4994650;28;20684;-73
2022/11/28 03:14:03;;;;;;;2.85;1.90;;;9.20;40.00;;;;;;4994231;28;20177;-74
2022/11/28 03:16:36;;;;;;;2.38;1.63;;;9.20;40.70;;;;;;4986460;28;20269;-74
2022/11/28 03:19:27;;;;;;;1.90;1.30;;;8.80;41.20;;;;;;4994232;28;20205;-73
2022/11/28 03:22:30;;;;;;;2.63;1.45;;;8.80;41.80;;;;;;4990100;28;20233;-74
2022/11/28 03:25:18;;;;;;;2.00;1.40;;;8.90;41.30;;;;;;4993280;28;20197;-74
2022/11/28 03:27:50;;;;;;;2.00;1.40;;;8.50;42.70;;;;;;4988370;28;20179;-73
2022/11/28 03:30:28;;;;;;;2.05;1.38;;;8.70;42.70;;;;;;4994207;28;20205;-74
2022/11/28 03:32:56;;;;;;;2.10;1.45;;;8.90;41.70;;;;;;4993371;28;20709;-74
2022/11/28 03:35:28;;;;;;;3.10;1.70;;;8.60;42.20;;;;;;4992518;28;20226;-74
2022/11/28 03:38:00;;;;;;;2.28;1.58;;;8.80;43.70;;;;;;4993699;28;20214;-73
2022/11/28 03:40:31;;;;;;;2.08;1.35;;;8.50;43.50;;;;;;4993980;28;20696;-74
2022/11/28 03:43:03;;;;;;;2.20;1.52;;;8.40;43.30;;;;;;4994663;28;20217;-75
2022/11/28 03:45:35;;;;;;;2.40;1.65;;;8.50;43.80;;;;;;4993771;28;20197;-73
2022/11/28 03:48:18;;;;;;;2.35;1.50;;;8.30;43.30;;;;;;4992500;28;20201;-73
2022/11/28 03:50:49;;;;;;;1.92;1.30;;;7.90;44.80;;;;;;4986760;28;20174;-73
2022/11/28 03:53:26;;;;;;;3.00;1.83;;;7.50;47.40;;;;;;4994609;28;20594;-73
2022/11/28 03:56:07;;;;;;;2.00;1.30;;;7.90;46.40;;;;;;4993741;28;20263;-74
2022/11/28 03:58:39;;;;;;;2.10;1.60;;;8.50;44.30;;;;;;4993295;28;20219;-73
2022/11/28 04:01:10;;;;;;;3.40;1.70;;;8.90;42.20;;;;;;5005899;28;20212;-74
2022/11/28 04:04:08;;;;;;;1.95;1.30;;;8.90;42.20;;;;;;4993899;28;20698;-71
2022/11/28 04:06:51;;;;;;;2.10;1.40;;;7.40;47.10;;;;;;4993168;28;20178;-73
2022/11/28 04:09:31;;;;;;;2.40;1.80;;;8.10;45.00;;;;;;4991285;28;20190;-72
2022/11/28 04:12:05;;;;;;;1.90;1.30;;;8.40;43.70;;;;;;4990180;28;20213;-74
2022/11/28 04:14:36;;;;;;;2.08;1.42;;;8.70;42.80;;;;;;4993406;28;20174;-73
2022/11/28 04:17:18;;;;;;;2.38;1.85;;;8.10;43.70;;;;;;4993546;28;20174;-71
2022/11/28 04:19:52;;;;;;;4.38;2.53;;;7.00;48.40;;;;;;4993050;28;20178;-71
2022/11/28 04:22:27;;;;;;;7.07;2.78;;;7.20;47.30;;;;;;4992390;28;20209;-71
2022/11/28 04:25:11;;;;;;;3.30;1.65;;;7.80;45.00;;;;;;4993375;28;20200;-74
2022/11/28 04:27:39;;;;;;;1.98;1.33;;;7.90;44.50;;;;;;4993567;28;20552;-73
2022/11/28 04:30:06;;;;;;;2.15;1.42;;;8.30;44.90;;;;;;4992180;28;20178;-74
2022/11/28 04:32:38;;;;;;;2.33;1.38;;;8.60;42.40;;;;;;4991029;28;20568;-74
2022/11/28 04:35:08;;;;;;;2.10;1.40;;;9.10;40.40;;;;;;4992546;28;20200;-73
2022/11/28 04:37:37;;;;;;;1.90;1.20;;;9.30;40.10;;;;;;4993317;28;20301;-73
2022/11/28 04:40:06;;;;;;;2.20;1.40;;;9.20;40.80;;;;;;4991444;28;20174;-74
2022/11/28 04:42:40;;;;;;;1.92;1.30;;;9.30;40.30;;;;;;4991751;28;20218;-74
2022/11/28 04:45:32;;;;;;;1.90;1.30;;;9.20;40.30;;;;;;4993433;28;20173;-74
2022/11/28 04:47:58;;;;;;;2.10;1.50;;;9.30;40.10;;;;;;4990662;28;20256;-72
2022/11/28 04:50:30;;;;;;;2.00;1.40;;;9.30;38.30;;;;;;4992186;28;20186;-73
2022/11/28 04:53:13;;;;;;;2.75;1.77;;;9.50;38.60;;;;;;4991801;28;20441;-74
2022/11/28 04:55:51;;;;;;;3.10;1.73;;;9.30;38.90;;;;;;4986054;28;20181;-73
2022/11/28 04:58:40;;;;;;;3.88;1.58;;;9.30;39.40;;;;;;4993303;28;20166;-72
2022/11/28 05:01:10;;;;;;;1.98;1.30;;;9.40;39.70;;;;;;4989220;28;20205;-74
2022/11/28 05:03:37;;;;;;;2.58;1.45;;;9.60;38.90;;;;;;4992062;28;20335;-74
2022/11/28 05:06:03;;;;;;;1.90;1.30;;;9.70;38.00;;;;;;4992318;28;20727;-72
2022/11/28 05:08:28;;;;;;;1.80;1.13;;;9.70;38.40;;;;;;4992974;28;20249;-73
2022/11/28 05:10:54;;;;;;;1.80;1.20;;;9.70;38.60;;;;;;4991525;28;20467;-74
2022/11/28 05:13:19;;;;;;;2.70;1.90;;;9.70;38.30;;;;;;4992891;28;20654;-74
2022/11/28 05:15:45;;;;;;;2.10;1.40;;;9.80;38.90;;;;;;4992179;28;20240;-73
2022/11/28 05:18:11;;;;;;;1.93;1.27;;;9.50;39.00;;;;;;5008466;23;20230;-71
2022/11/28 05:20:38;;;;;;;1.90;1.50;;;8.90;40.40;;;;;;5004251;28;20193;-71
2022/11/28 05:23:04;;;;;;;2.97;1.85;;;9.00;40.40;;;;;;4999105;28;20204;-71
2022/11/28 05:25:29;;;;;;;3.65;2.13;;;9.30;40.80;;;;;;4992723;28;20232;-71
2022/11/28 05:27:55;;;;;;;2.57;1.60;;;9.30;40.00;;;;;;4991645;28;20217;-69
2022/11/28 05:30:20;;;;;;;2.17;1.60;;;9.50;39.60;;;;;;4990375;28;20184;-69
2022/11/28 05:32:46;;;;;;;1.80;1.10;;;9.30;39.40;;;;;;4991649;28;20289;-69
2022/11/28 05:35:12;;;;;;;1.90;1.50;;;9.40;40.00;;;;;;4990899;28;20174;-68
2022/11/28 05:37:38;;;;;;;2.53;1.83;;;9.20;39.90;;;;;;4994061;28;20290;-69
2022/11/28 05:40:04;;;;;;;2.42;1.50;;;9.00;41.20;;;;;;4990606;28;20217;-69
2022/11/28 05:42:34;;;;;;;2.70;1.52;;;9.20;40.30;;;;;;4990940;28;20182;-68
2022/11/28 05:45:01;;;;;;;1.90;1.40;;;9.20;39.60;;;;;;4991217;28;20174;-68
2022/11/28 05:47:29;;;;;;;1.85;1.20;;;9.40;39.30;;;;;;4987908;28;20220;-70
2022/11/28 05:49:55;;;;;;;1.70;1.10;;;9.50;39.00;;;;;;4989383;28;20649;-70
2022/11/28 05:52:21;;;;;;;1.70;1.10;;;9.40;39.90;;;;;;4990036;28;20194;-69
2022/11/28 05:54:46;;;;;;;5.80;1.70;;;9.50;39.30;;;;;;4990331;28;20189;-70
2022/11/28 05:57:12;;;;;;;1.80;1.30;;;9.50;39.10;;;;;;4993590;28;20177;-70
2022/11/28 05:59:37;;;;;;;2.20;1.37;;;9.50;39.20;;;;;;4990562;28;20224;-69
2022/11/28 06:02:03;;;;;;;2.67;1.83;;;9.30;40.00;;;;;;4989698;28;20181;-69
2022/11/28 06:04:29;;;;;;;1.90;1.30;;;8.80;40.90;;;;;;4991049;28;20217;-70
2022/11/28 06:06:54;;;;;;;2.83;2.03;;;8.70;41.50;;;;;;4994054;28;20174;-69
2022/11/28 06:09:20;;;;;;;2.33;1.43;;;9.00;41.20;;;;;;4991398;28;20177;-70
2022/11/28 06:11:45;;;;;;;1.90;1.20;;;9.30;40.10;;;;;;4992372;28;20174;-70
2022/11/28 06:14:11;;;;;;;1.90;1.10;;;9.40;39.90;;;;;;4991060;28;20217;-70
2022/11/28 06:16:37;;;;;;;2.87;1.77;;;8.90;40.00;;;;;;4989901;28;20268;-70
2022/11/28 06:19:04;;;;;;;1.90;1.20;;;8.50;41.70;;;;;;4989357;28;20214;-75
2022/11/28 06:21:30;;;;;;;1.80;1.20;;;8.60;41.50;;;;;;4992465;28;20218;-75
2022/11/28 06:23:58;;;;;;;1.80;1.20;;;8.70;41.70;;;;;;4991800;28;20703;-75
2022/11/28 06:26:25;;;;;;;2.10;1.30;;;8.90;41.50;;;;;;4989753;28;20182;-75
2022/11/28 06:28:51;;;;;;;1.80;1.23;;;9.20;40.70;;;;;;4991685;28;20198;-76
2022/11/28 06:31:20;;;;;;;1.98;1.20;;;9.40;39.80;;;;;;4991433;28;20620;-70
2022/11/28 06:33:45;;;;;;;1.75;1.13;;;9.20;40.60;;;;;;4992395;28;20273;-70
2022/11/28 06:36:12;;;;;;;3.73;2.13;;;8.30;42.70;;;;;;4988101;28;20718;-69
2022/11/28 06:38:38;;;;;;;2.33;1.70;;;7.60;46.20;;;;;;4992879;28;20228;-69
2022/11/28 06:41:06;;;;;;;2.00;1.50;;;7.30;48.70;;;;;;4993209;28;20193;-69
2022/11/28 06:43:32;;;;;;;3.88;2.60;;;7.40;47.60;;;;;;4989685;28;20202;-70
2022/11/28 06:45:58;;;;;;;2.10;1.40;;;7.60;47.40;;;;;;4997353;28;20192;-69
2022/11/28 06:48:24;;;;;;;1.80;1.10;;;8.20;45.20;;;;;;4995534;28;20202;-70
2022/11/28 06:50:50;;;;;;;1.97;1.33;;;8.60;43.50;;;;;;4994683;28;20661;-70
2022/11/28 06:53:16;;;;;;;2.28;1.55;;;8.60;42.90;;;;;;4992636;28;20963;-70
2022/11/28 06:55:43;;;;;;;2.22;1.50;;;8.80;42.60;;;;;;4996617;28;20197;-70
2022/11/28 06:58:08;;;;;;;1.80;1.10;;;9.10;41.60;;;;;;4994105;28;20289;-70
2022/11/28 07:00:35;;;;;;;2.27;1.60;;;9.40;41.30;;;;;;4993036;28;20276;-70
2022/11/28 07:03:00;;;;;;;4.90;1.63;;;9.50;40.30;;;;;;4992372;28;20214;-70
2022/11/28 07:05:29;;;;;;;2.00;1.20;;;9.80;38.90;;;;;;4995101;28;20190;-70
2022/11/28 07:07:59;;;;;;;2.28;1.63;;;9.50;39.60;;;;;;4992499;28;20735;-70
2022/11/28 07:10:26;;;;;;;2.45;1.50;;;9.30;40.40;;;;;;4993729;28;20646;-70
2022/11/28 07:12:57;;;;;;;2.45;1.35;;;9.30;41.00;;;;;;4994220;28;20182;-70
2022/11/28 07:15:23;;;;;;;3.08;1.95;;;9.40;40.90;;;;;;4995078;28;20202;-72
2022/11/28 07:17:49;;;;;;;2.00;1.50;;;9.50;38.80;;;;;;4992696;28;20317;-71
2022/11/28 07:20:15;;;;;;;2.30;1.70;;;9.40;39.80;;;;;;4993293;28;20676;-72
2022/11/28 07:22:42;;;;;;;2.00;1.37;;;9.40;39.50;;;;;;4994214;28;20170;-71
2022/11/28 07:25:08;;;;;;;3.40;1.83;;;9.40;40.30;;;;;;4995302;28;20443;-72
2022/11/28 07:27:34;;;;;;;1.77;1.17;;;9.40;40.60;;;;;;4991113;28;20232;-70
2022/11/28 07:29:59;;;;;;;2.10;1.53;;;9.50;39.70;;;;;;4993209;28;20274;-71
2022/11/28 07:32:25;;;;;;;2.50;1.50;;;9.60;39.70;;;;;;4993992;28;20170;-72
2022/11/28 07:34:50;;;;;;;1.73;1.10;;;9.60;40.00;;;;;;4992575;28;20658;-71
2022/11/28 07:37:16;;;;;;;1.90;1.30;;;9.90;40.30;;;;;;4992995;28;20210;-70
2022/11/28 07:39:43;;;;;;;1.80;1.23;;;9.50;40.30;;;;;;4992358;28;20208;-71
2022/11/28 07:42:10;;;;;;;2.20;1.45;;;9.50;39.80;;;;;;4994699;28;20177;-70
2022/11/28 07:44:35;;;;;;;1.70;1.10;;;9.70;38.80;;;;;;4991339;28;20206;-71
2022/11/28 07:47:01;;;;;;;2.93;1.70;;;9.70;40.10;;;;;;4994574;28;20187;-69
2022/11/28 07:49:27;;;;;;;1.90;1.30;;;9.70;40.30;;;;;;4989957;28;20579;-71
2022/11/28 07:51:52;;;;;;;1.90;1.37;;;9.80;39.30;;;;;;4991331;28;20182;-71
2022/11/28 07:54:18;;;;;;;2.10;1.77;;;9.80;39.30;;;;;;4993189;28;20178;-72
2022/11/28 07:56:43;;;;;;;2.77;1.60;;;9.80;40.00;;;;;;4995479;28;20189;-71
2022/11/28 07:59:09;;;;;;;2.57;1.70;;;9.80;39.60;;;;;;4992579;28;20198;-70
2022/11/28 08:01:35;;;;;;;2.20;1.40;;;10.00;37.00;;;;;;4993520;28;20192;-70
2022/11/28 08:04:03;;;;;;;2.38;1.55;;;10.50;36.10;;;;;;4992433;28;20196;-70
2022/11/28 08:06:30;;;;;;;1.70;1.20;;;10.20;37.50;;;;;;4993050;28;20234;-71
2022/11/28 08:08:56;;;;;;;1.90;1.30;;;10.20;38.20;;;;;;4995146;28;20619;-71
2022/11/28 08:11:24;;;;;;;2.10;1.38;;;10.10;37.30;;;;;;4991906;28;20190;-70
2022/11/28 08:13:50;;;;;;;2.00;1.38;;;9.80;38.00;;;;;;4993878;28;20192;-70
2022/11/28 08:16:18;;;;;;;1.80;1.20;;;9.50;38.60;;;;;;4991829;28;20192;-71
2022/11/28 08:18:45;;;;;;;2.53;1.35;;;9.80;38.20;;;;;;4993487;28;20256;-71
2022/11/28 08:21:14;;;;;;;2.20;1.63;;;10.20;36.80;;;;;;4992123;28;20200;-71
2022/11/28 08:23:40;;;;;;;2.67;1.52;;;10.30;36.90;;;;;;4993761;28;20208;-70
2022/11/28 08:26:08;;;;;;;1.70;1.17;;;10.60;36.50;;;;;;4993755;28;20170;-74
2022/11/28 08:28:34;;;;;;;1.70;1.17;;;10.50;36.00;;;;;;4996901;28;20206;-71
2022/11/28 08:31:08;;;;;;;2.28;1.77;;;10.60;35.10;;;;;;4992209;28;20175;-70
2022/11/28 08:33:34;;;;;;;2.42;1.35;;;10.10;36.90;;;;;;4986482;28;20208;-70
2022/11/28 08:36:02;;;;;;;1.80;1.20;;;9.60;39.90;;;;;;4993078;28;20193;-71
2022/11/28 08:38:27;;;;;;;2.88;2.05;;;9.30;40.20;;;;;;4992584;28;20206;-71
2022/11/28 08:41:01;;;;;;;1.90;1.30;;;9.50;39.90;;;;;;4995532;28;20194;-71
2022/11/28 08:43:27;;;;;;;2.63;1.75;;;10.00;37.80;;;;;;4991244;28;20560;-71
2022/11/28 08:45:52;;;;;;;1.70;1.10;;;10.30;36.70;;;;;;4992189;28;20182;-71
2022/11/28 08:48:18;;;;;;;2.23;1.53;;;10.40;36.60;;;;;;4993498;28;20182;-71
2022/11/28 08:50:48;;;;;;;4.93;2.07;;;10.60;36.40;;;;;;4994956;28;20192;-71
2022/11/28 08:53:14;;;;;;;1.80;1.10;;;10.50;35.70;;;;;;4991685;28;20252;-71
2022/11/28 08:55:43;;;;;;;2.83;2.08;;;11.10;37.80;;;;;;4993467;28;20195;-71
2022/11/28 08:58:13;;;;;;;2.00;1.38;;;10.90;35.90;;;;;;4993725;28;20809;-71
2022/11/28 09:00:39;;;;;;;2.10;1.40;;;10.90;36.50;;;;;;4993705;28;20619;-71
2022/11/28 09:03:04;;;;;;;2.63;1.40;;;11.00;36.90;;;;;;4992147;28;20219;-70
2022/11/28 09:05:30;;;;;;;2.00;1.30;;;11.10;36.30;;;;;;4993080;28;20172;-71
2022/11/28 09:07:56;;;;;;;2.20;1.70;;;11.10;36.10;;;;;;4992758;28;20226;-71
2022/11/28 09:10:23;;;;;;;2.90;2.13;;;11.10;36.00;;;;;;4993120;28;20184;-71
2022/11/28 09:12:49;;;;;;;2.00;1.35;;;11.10;35.70;;;;;;4992612;28;20419;-71
2022/11/28 09:15:15;;;;;;;3.67;1.77;;;11.10;36.10;;;;;;4990835;28;20664;-71
2022/11/28 09:17:40;;;;;;;1.90;1.20;;;11.30;36.60;;;;;;4994768;28;20265;-71
2022/11/28 09:20:07;;;;;;;1.90;1.27;;;11.10;36.10;;;;;;4989039;28;20656;-72
2022/11/28 09:22:33;;;;;;;2.15;1.42;;;11.20;35.30;;;;;;4992847;28;20209;-71
2022/11/28 09:24:58;;;;;;;2.00;1.30;;;10.60;36.70;;;;;;4993645;28;20210;-71
2022/11/28 09:27:24;;;;;;;2.17;1.43;;;10.90;36.90;;;;;;4998160;28;20449;-72
2022/11/28 09:29:49;;;;;;;4.03;2.20;;;11.10;36.40;;;;;;4998790;28;20198;-71
2022/11/28 09:32:15;;;;;;;1.90;1.20;;;11.20;36.00;;;;;;5015207;28;20641;-70
2022/11/28 09:34:41;;;;;;;2.00;1.30;;;11.20;36.20;;;;;;4995920;28;20189;-71
2022/11/28 09:37:06;;;;;;;2.10;1.30;;;10.90;35.80;;;;;;4993111;28;20235;-71
2022/11/28 09:39:32;;;;;;;2.20;1.30;;;11.00;37.30;;;;;;4992622;28;20547;-71
2022/11/28 09:42:16;;;;;;;2.73;1.60;;;10.50;37.80;;;;;;4995694;28;20588;-71
2022/11/28 09:44:51;;;;;;;2.00;1.38;;;10.10;38.50;;;;;;4987586;28;20228;-71
2022/11/28 09:47:29;;;;;;;2.22;1.52;;;10.30;37.90;;;;;;4992438;28;20202;-71
2022/11/28 09:50:06;;;;;;;1.95;1.20;;;10.40;37.50;;;;;;4995000;28;20542;-71
2022/11/28 09:53:00;;;;;;;2.70;1.70;;;10.70;37.80;;;;;;4994344;28;20178;-70
2022/11/28 09:55:39;;;;;;;3.20;1.80;;;11.10;35.70;;;;;;4991478;28;20186;-70
2022/11/28 09:58:14;;;;;;;2.00;1.30;;;11.40;35.80;;;;;;4992131;28;20228;-71
2022/11/28 10:01:07;;;;;;;2.55;1.70;;;11.60;35.00;;;;;;4992189;28;20172;-71
2022/11/28 10:03:36;;;;;;;2.30;1.58;;;10.80;36.70;;;;;;4992259;28;20209;-71
2022/11/28 10:06:20;;;;;;;3.38;2.08;;;11.20;37.10;;;;;;4990731;28;20567;-71
2022/11/28 10:09:02;;;;;;;2.10;1.30;;;11.50;36.20;;;;;;4984031;28;20719;-71
2022/11/28 10:11:43;;;;;;;2.83;1.63;;;11.70;36.70;;;;;;4990305;28;20272;-71
2022/11/28 10:14:14;;;;;;;3.10;1.50;;;11.60;35.00;;;;;;4993832;28;20189;-71
2022/11/28 10:17:23;;;;;;;2.40;1.45;;;11.30;35.60;;;;;;4991590;28;20661;-71
2022/11/28 10:19:57;;;;;;;2.10;1.20;;;10.80;36.70;;;;;;4993377;28;20204;-70
2022/11/28 10:22:30;;;;;;;3.40;2.03;;;11.40;36.40;;;;;;4993032;28;20200;-71
2022/11/28 10:25:02;;;;;;;2.85;1.60;;;11.40;36.20;;;;;;4993913;28;20249;-70
2022/11/28 10:27:33;;;;;;;2.22;1.30;;;11.70;36.10;;;;;;4992312;28;20198;-71
2022/11/28 10:30:05;;;;;;;2.80;1.70;;;12.00;35.00;;;;;;4991406;28;20708;-71
2022/11/28 10:32:35;;;;;;;3.05;1.63;;;12.10;34.30;;;;;;4991712;28;20241;-71
2022/11/28 10:35:06;;;;;;;7.10;3.40;;;12.30;34.50;;;;;;4991928;28;20189;-71
2022/11/28 10:37:35;;;;;;;2.83;1.67;;;12.40;34.20;;;;;;4989812;28;20463;-71
2022/11/28 10:40:51;;;;;;;2.60;1.40;;;12.40;34.40;;;;;;4991722;28;20174;-71
2022/11/28 10:43:33;;;;;;;2.20;1.20;;;12.40;34.60;;;;;;4945683;28;20471;-71
2022/11/28 10:46:28;;;;;;;2.95;1.65;;;12.10;35.50;;;;;;4948903;29;20519;-71
2022/11/28 10:48:59;;;;;;;3.23;2.03;;;11.60;36.40;;;;;;4940655;29;20302;-71
2022/11/28 10:51:50;;;;;;;2.80;1.60;;;11.50;37.10;;;;;;4949824;29;20419;-71
2022/11/28 10:54:41;;;;;;;2.40;1.30;;;11.50;36.70;;;;;;4945070;29;20445;-70
2022/11/28 10:57:25;;;;;;;2.33;1.27;;;11.30;37.00;;;;;;4934496;28;20423;-71
2022/11/28 11:00:01;;;;;;;2.70;1.40;;;11.40;36.70;;;;;;4947968;28;20418;-71
2022/11/28 11:02:38;;;;;;;2.50;1.37;;;11.30;37.00;;;;;;4948043;29;20427;-72
2022/11/28 11:05:06;;;;;;;2.50;1.40;;;11.20;37.40;;;;;;4940055;29;20538;-71
2022/11/28 11:07:32;;;;;;;2.90;1.43;;;10.90;38.20;;;;;;4963480;28;20434;-71
2022/11/28 11:10:21;;;;;;;3.83;1.63;;;11.10;38.10;;;;;;4940225;29;20453;-71
2022/11/28 11:12:50;;;;;;;2.50;1.30;;;11.20;37.00;;;;;;4909063;28;20183;-72
2022/11/28 11:15:21;;;;;;;3.33;2.00;;;11.10;37.30;;;;;;4989552;28;20186;-71
2022/11/28 11:17:49;;;;;;;2.85;1.38;;;11.40;37.40;;;;;;4989920;28;20511;-72
2022/11/28 11:20:32;;;;;;;4.50;2.17;;;11.80;36.30;;;;;;4993708;28;20197;-71
2022/11/28 11:23:19;;;;;;;3.93;2.90;;;12.20;35.20;;;;;;4991592;28;20495;-70
2022/11/28 11:25:48;;;;;;;3.00;1.70;;;12.70;35.80;;;;;;4993169;28;20453;-71
2022/11/28 11:28:46;;;;;;;3.70;1.90;;;12.80;35.40;;;;;;4992943;28;20951;-71
2022/11/28 11:31:24;;;;;;;3.23;2.03;;;12.60;34.80;;;;;;4997169;28;20432;-72
2022/11/28 11:33:59;;;;;;;4.07;2.40;;;12.20;34.70;;;;;;4994692;28;20432;-71
2022/11/28 11:36:31;;;;;;;2.80;1.60;;;11.70;36.30;;;;;;4993107;28;20436;-71
2022/11/28 11:39:13;;;;;;;3.20;1.80;;;11.30;38.10;;;;;;4994462;28;20524;-71
2022/11/28 11:41:44;;;;;;;3.30;1.70;;;11.10;38.30;;;;;;4993886;28;20429;-71
2022/11/28 11:44:12;;;;;;;3.10;1.97;;;11.20;38.70;;;;;;4993517;28;20496;-71
2022/11/28 11:47:01;;;;;;;4.93;1.50;;;10.60;40.40;;;;;;4992723;28;20441;-71
2022/11/28 11:49:43;;;;;;;2.70;1.53;;;10.60;41.00;;;;;;4994223;28;20440;-71
2022/11/28 11:52:12;;;;;;;4.20;1.93;;;10.60;39.70;;;;;;4996504;28;20431;-72
2022/11/28 11:54:58;;;;;;;2.60;1.37;;;10.80;38.50;;;;;;4995773;28;20417;-72
2022/11/28 11:57:30;;;;;;;2.70;1.50;;;11.00;39.00;;;;;;4985530;28;20559;-73
2022/11/28 12:00:08;;;;;;;3.07;1.77;;;11.90;36.10;;;;;;4992853;28;20441;-75
2022/11/28 12:02:39;;;;;;;2.80;1.60;;;11.90;36.10;;;;;;4987701;28;21089;-72
2022/11/28 12:05:26;;;;;;;2.37;1.20;;;12.30;36.50;;;;;;4994901;28;20469;-70
2022/11/28 12:08:04;;;;;;;2.90;1.47;;;12.30;36.10;;;;;;4987903;28;20459;-71
2022/11/28 12:10:36;;;;;;;3.33;1.77;;;13.00;34.50;;;;;;4988397;28;20440;-71
2022/11/28 12:13:02;;;;;;;2.90;1.70;;;13.20;35.40;;;;;;4993988;28;20559;-71
2022/11/28 12:16:03;;;;;;;3.00;1.63;;;13.30;35.80;;;;;;4989792;28;20436;-72
2022/11/28 12:19:00;;;;;;;2.80;1.50;;;13.40;35.50;;;;;;4967097;28;20478;-71
2022/11/28 12:21:54;;;;;;;4.40;2.07;;;13.70;36.20;;;;;;4955903;28;20501;-69
2022/11/28 12:24:32;;;;;;;3.23;1.77;;;13.90;36.30;;;;;;4972506;28;21012;-69
2022/11/28 12:27:09;;;;;;;4.27;2.40;;;13.70;36.30;;;;;;4970525;28;20446;-70
2022/11/28 12:29:48;;;;;;;3.97;1.63;;;13.20;38.00;;;;;;4971363;28;20422;-73
2022/11/28 12:32:45;;;;;;;3.10;1.60;;;13.40;38.60;;;;;;4963827;28;20980;-71
2022/11/28 12:35:31;;;;;;;3.57;1.73;;;13.30;38.30;;;;;;4969740;28;20449;-70
2022/11/28 12:38:17;;;;;;;2.53;1.20;;;13.50;38.60;;;;;;4952015;28;21083;-70
2022/11/28 12:40:52;;;;;;;2.80;1.30;;;13.50;38.40;;;;;;4964542;28;20497;-71
2022/11/28 12:43:34;;;;;;;5.50;2.60;;;13.40;36.40;;;;;;4969072;28;20555;-69
2022/11/28 12:46:40;;;;;;;3.20;1.60;;;13.10;38.20;;;;;;4971597;28;20461;-71
2022/11/28 12:49:45;;;;;;;3.80;1.97;;;12.60;39.30;;;;;;4950010;28;20553;-70
2022/11/28 12:52:48;;;;;;;3.07;1.77;;;12.30;40.60;;;;;;4953696;28;20493;-70
2022/11/28 12:55:29;;;;;;;3.03;1.40;;;12.00;40.70;;;;;;4979925;28;20499;-70
2022/11/28 12:58:19;;;;;;;2.90;1.40;;;11.90;40.30;;;;;;4991365;28;20867;-70
2022/11/28 13:01:12;;;;;;;2.77;1.40;;;12.30;39.50;;;;;;5008257;28;20429;-70
2022/11/28 13:04:05;;;;;;;3.00;1.60;;;12.80;37.70;;;;;;4973677;28;20446;-70
2022/11/28 13:07:06;;;;;;;3.03;1.43;;;12.70;37.40;;;;;;5003508;28;20429;-70
2022/11/28 13:09:36;;;;;;;5.17;2.20;;;12.70;36.80;;;;;;4991585;28;20823;-70
2022/11/28 13:12:47;;;;;;;2.80;1.30;;;12.80;36.30;;;;;;4992944;28;20414;-70
2022/11/28 13:15:33;;;;;;;3.77;1.77;;;13.30;36.10;;;;;;4989804;28;21021;-70
2022/11/28 13:18:43;;;;;;;6.20;2.90;;;13.60;35.80;;;;;;4992611;28;20468;-70
2022/11/28 13:21:30;;;;;;;2.93;1.50;;;14.00;35.50;;;;;;4957835;28;20546;-70